ADDS METAR Data

Data at: 1829 UTC 20 Jul 2018

METAR for:KSFM (Sanford Rgnl, ME, US)
Text:KSFM 201756Z AUTO 14007KT 10SM CLR 27/14 A3018 RMK AO2 SLP222 T02670144 10278 20183 58005
Temperature: 26.7°C ( 80°F)
Dewpoint: 14.4°C ( 58°F) [RH = 47%]
Pressure (altimeter):30.18 inches Hg (1022.1 mb) [Sea level pressure: 1022.2 mb]
Winds:from the SE (140 degrees) at 8 MPH (7 knots; 3.6 m/s)
Visibility:10 or more sm (16+ km)
Ceiling:at least 12,000 feet AGL
Clouds:sky clear below 12,000 feet AGL
QC Flag:automated observation with no human augmentation